sensor_id;sensor_type;location;lat;lon;timestamp;P1;durP1;ratioP1;P2;durP2;ratioP2
3131;SDS011;62090;52.330;9.104;2022-11-25T00:00:37;19.43;;;4.30;;
3131;SDS011;62090;52.330;9.104;2022-11-25T00:03:07;26.70;;;4.00;;
3131;SDS011;62090;52.330;9.104;2022-11-25T00:05:37;20.70;;;4.27;;
3131;SDS011;62090;52.330;9.104;2022-11-25T00:08:09;22.30;;;4.27;;
3131;SDS011;62090;52.330;9.104;2022-11-25T00:10:39;15.63;;;3.40;;
3131;SDS011;62090;52.330;9.104;2022-11-25T00:13:09;16.90;;;3.97;;
3131;SDS011;62090;52.330;9.104;2022-11-25T00:15:39;17.60;;;3.70;;
3131;SDS011;62090;52.330;9.104;2022-11-25T00:18:09;18.80;;;3.83;;
3131;SDS011;62090;52.330;9.104;2022-11-25T00:20:39;16.70;;;3.93;;
3131;SDS011;62090;52.330;9.104;2022-11-25T00:23:11;15.33;;;3.93;;
3131;SDS011;62090;52.330;9.104;2022-11-25T00:25:41;13.80;;;3.90;;
3131;SDS011;62090;52.330;9.104;2022-11-25T00:28:11;14.90;;;3.70;;
3131;SDS011;62090;52.330;9.104;2022-11-25T00:30:41;16.63;;;3.83;;
3131;SDS011;62090;52.330;9.104;2022-11-25T00:33:11;17.60;;;4.30;;
3131;SDS011;62090;52.330;9.104;2022-11-25T00:35:40;19.67;;;4.10;;
3131;SDS011;62090;52.330;9.104;2022-11-25T00:38:13;16.93;;;3.77;;
3131;SDS011;62090;52.330;9.104;2022-11-25T00:40:43;13.33;;;3.47;;
3131;SDS011;62090;52.330;9.104;2022-11-25T00:43:33;13.13;;;3.80;;
3131;SDS011;62090;52.330;9.104;2022-11-25T00:46:15;16.50;;;3.70;;
3131;SDS011;62090;52.330;9.104;2022-11-25T00:48:45;12.27;;;3.47;;
3131;SDS011;62090;52.330;9.104;2022-11-25T00:51:15;11.53;;;3.43;;
3131;SDS011;62090;52.330;9.104;2022-11-25T00:53:47;10.33;;;3.27;;
3131;SDS011;62090;52.330;9.104;2022-11-25T00:56:24;10.97;;;3.23;;
3131;SDS011;62090;52.330;9.104;2022-11-25T00:58:57;12.03;;;2.87;;
3131;SDS011;62090;52.330;9.104;2022-11-25T01:01:26;10.20;;;3.03;;
3131;SDS011;62090;52.330;9.104;2022-11-25T01:03:56;17.30;;;3.10;;
3131;SDS011;62090;52.330;9.104;2022-11-25T01:06:26;21.40;;;3.63;;
3131;SDS011;62090;52.330;9.104;2022-11-25T01:08:59;17.03;;;3.63;;
3131;SDS011;62090;52.330;9.104;2022-11-25T01:11:28;13.43;;;2.63;;
3131;SDS011;62090;52.330;9.104;2022-11-25T01:13:58;16.60;;;3.73;;
3131;SDS011;62090;52.330;9.104;2022-11-25T01:16:29;12.07;;;3.50;;
3131;SDS011;62090;52.330;9.104;2022-11-25T01:18:59;13.43;;;3.13;;
3131;SDS011;62090;52.330;9.104;2022-11-25T01:21:30;17.60;;;3.60;;
3131;SDS011;62090;52.330;9.104;2022-11-25T01:24:04;13.37;;;3.60;;
3131;SDS011;62090;52.330;9.104;2022-11-25T01:26:35;14.40;;;3.53;;
3131;SDS011;62090;52.330;9.104;2022-11-25T01:29:05;16.13;;;3.70;;
3131;SDS011;62090;52.330;9.104;2022-11-25T01:31:39;15.80;;;3.80;;
3131;SDS011;62090;52.330;9.104;2022-11-25T01:34:11;12.80;;;3.77;;
3131;SDS011;62090;52.330;9.104;2022-11-25T01:36:42;13.73;;;3.30;;
3131;SDS011;62090;52.330;9.104;2022-11-25T01:39:16;15.40;;;3.60;;
3131;SDS011;62090;52.330;9.104;2022-11-25T01:41:57;17.23;;;3.47;;
3131;SDS011;62090;52.330;9.104;2022-11-25T01:44:28;22.90;;;3.77;;
3131;SDS011;62090;52.330;9.104;2022-11-25T01:47:00;15.47;;;3.30;;
3131;SDS011;62090;52.330;9.104;2022-11-25T01:49:37;8.20;;;3.37;;
3131;SDS011;62090;52.330;9.104;2022-11-25T01:52:12;13.03;;;3.23;;
3131;SDS011;62090;52.330;9.104;2022-11-25T01:54:50;13.63;;;3.00;;
3131;SDS011;62090;52.330;9.104;2022-11-25T01:57:25;4.90;;;2.73;;
3131;SDS011;62090;52.330;9.104;2022-11-25T02:00:00;16.00;;;3.70;;
3131;SDS011;62090;52.330;9.104;2022-11-25T02:02:43;12.07;;;3.13;;
3131;SDS011;62090;52.330;9.104;2022-11-25T02:05:14;21.47;;;3.53;;
3131;SDS011;62090;52.330;9.104;2022-11-25T02:07:47;15.03;;;3.33;;
3131;SDS011;62090;52.330;9.104;2022-11-25T02:10:23;6.37;;;2.43;;
3131;SDS011;62090;52.330;9.104;2022-11-25T02:12:57;13.07;;;3.17;;
3131;SDS011;62090;52.330;9.104;2022-11-25T02:15:28;10.30;;;3.10;;
3131;SDS011;62090;52.330;9.104;2022-11-25T02:18:02;11.13;;;2.90;;
3131;SDS011;62090;52.330;9.104;2022-11-25T02:20:33;12.53;;;2.90;;
3131;SDS011;62090;52.330;9.104;2022-11-25T02:23:05;11.77;;;3.43;;
3131;SDS011;62090;52.330;9.104;2022-11-25T02:25:45;13.13;;;3.43;;
3131;SDS011;62090;52.330;9.104;2022-11-25T02:28:17;12.37;;;2.40;;
3131;SDS011;62090;52.330;9.104;2022-11-25T02:30:49;13.60;;;3.23;;
3131;SDS011;62090;52.330;9.104;2022-11-25T02:33:21;16.73;;;3.33;;
3131;SDS011;62090;52.330;9.104;2022-11-25T02:35:55;16.40;;;3.40;;
3131;SDS011;62090;52.330;9.104;2022-11-25T02:38:34;13.00;;;3.30;;
3131;SDS011;62090;52.330;9.104;2022-11-25T02:41:10;10.30;;;3.07;;
3131;SDS011;62090;52.330;9.104;2022-11-25T02:43:46;22.27;;;4.17;;
3131;SDS011;62090;52.330;9.104;2022-11-25T02:46:19;14.03;;;3.63;;
3131;SDS011;62090;52.330;9.104;2022-11-25T02:48:50;19.80;;;3.70;;
3131;SDS011;62090;52.330;9.104;2022-11-25T02:51:40;20.47;;;4.27;;
3131;SDS011;62090;52.330;9.104;2022-11-25T02:54:12;18.40;;;3.70;;
3131;SDS011;62090;52.330;9.104;2022-11-25T02:56:45;13.90;;;3.73;;
3131;SDS011;62090;52.330;9.104;2022-11-25T02:59:15;14.17;;;2.97;;
3131;SDS011;62090;52.330;9.104;2022-11-25T03:01:46;13.30;;;3.40;;
3131;SDS011;62090;52.330;9.104;2022-11-25T03:04:16;11.90;;;3.47;;
3131;SDS011;62090;52.330;9.104;2022-11-25T03:06:46;18.60;;;3.83;;
3131;SDS011;62090;52.330;9.104;2022-11-25T03:09:16;18.87;;;2.80;;
3131;SDS011;62090;52.330;9.104;2022-11-25T03:11:48;14.13;;;3.40;;
3131;SDS011;62090;52.330;9.104;2022-11-25T03:14:31;15.10;;;4.00;;
3131;SDS011;62090;52.330;9.104;2022-11-25T03:17:01;15.20;;;3.40;;
3131;SDS011;62090;52.330;9.104;2022-11-25T03:19:31;12.53;;;3.23;;
3131;SDS011;62090;52.330;9.104;2022-11-25T03:22:01;11.03;;;3.10;;
3131;SDS011;62090;52.330;9.104;2022-11-25T03:24:31;18.37;;;4.23;;
3131;SDS011;62090;52.330;9.104;2022-11-25T03:27:05;21.27;;;3.80;;
3131;SDS011;62090;52.330;9.104;2022-11-25T03:29:34;10.17;;;3.40;;
3131;SDS011;62090;52.330;9.104;2022-11-25T03:32:05;12.70;;;3.10;;
3131;SDS011;62090;52.330;9.104;2022-11-25T03:34:36;19.03;;;3.90;;
3131;SDS011;62090;52.330;9.104;2022-11-25T03:37:06;12.37;;;3.20;;
3131;SDS011;62090;52.330;9.104;2022-11-25T03:39:37;14.50;;;3.30;;
3131;SDS011;62090;52.330;9.104;2022-11-25T03:42:10;11.37;;;2.80;;
3131;SDS011;62090;52.330;9.104;2022-11-25T03:44:40;14.13;;;3.20;;
3131;SDS011;62090;52.330;9.104;2022-11-25T03:47:10;15.07;;;3.57;;
3131;SDS011;62090;52.330;9.104;2022-11-25T03:49:40;9.73;;;2.90;;
3131;SDS011;62090;52.330;9.104;2022-11-25T03:52:10;18.70;;;3.50;;
3131;SDS011;62090;52.330;9.104;2022-11-25T03:54:40;16.33;;;3.30;;
3131;SDS011;62090;52.330;9.104;2022-11-25T03:57:23;18.60;;;3.20;;
3131;SDS011;62090;52.330;9.104;2022-11-25T03:59:53;25.63;;;3.97;;
3131;SDS011;62090;52.330;9.104;2022-11-25T04:02:23;12.30;;;3.00;;
3131;SDS011;62090;52.330;9.104;2022-11-25T04:04:53;15.97;;;3.17;;
3131;SDS011;62090;52.330;9.104;2022-11-25T04:07:23;15.37;;;3.27;;
3131;SDS011;62090;52.330;9.104;2022-11-25T04:09:55;14.97;;;3.77;;
3131;SDS011;62090;52.330;9.104;2022-11-25T04:12:30;11.00;;;2.97;;
3131;SDS011;62090;52.330;9.104;2022-11-25T04:15:19;12.40;;;3.10;;
3131;SDS011;62090;52.330;9.104;2022-11-25T04:17:52;15.33;;;3.63;;
3131;SDS011;62090;52.330;9.104;2022-11-25T04:20:22;16.37;;;3.47;;
3131;SDS011;62090;52.330;9.104;2022-11-25T04:22:58;12.40;;;3.33;;
3131;SDS011;62090;52.330;9.104;2022-11-25T04:25:28;11.87;;;2.97;;
3131;SDS011;62090;52.330;9.104;2022-11-25T04:28:01;15.23;;;3.10;;
3131;SDS011;62090;52.330;9.104;2022-11-25T04:30:32;14.77;;;3.00;;
3131;SDS011;62090;52.330;9.104;2022-11-25T04:33:02;14.50;;;2.87;;
3131;SDS011;62090;52.330;9.104;2022-11-25T04:35:33;16.70;;;2.63;;
3131;SDS011;62090;52.330;9.104;2022-11-25T04:38:03;18.77;;;3.83;;
3131;SDS011;62090;52.330;9.104;2022-11-25T04:40:35;17.30;;;3.27;;
3131;SDS011;62090;52.330;9.104;2022-11-25T04:43:25;19.67;;;3.40;;
3131;SDS011;62090;52.330;9.104;2022-11-25T04:46:02;12.30;;;2.77;;
3131;SDS011;62090;52.330;9.104;2022-11-25T04:48:40;16.40;;;3.30;;
3131;SDS011;62090;52.330;9.104;2022-11-25T04:51:10;13.10;;;2.87;;
3131;SDS011;62090;52.330;9.104;2022-11-25T04:53:40;18.53;;;3.67;;
3131;SDS011;62090;52.330;9.104;2022-11-25T04:56:13;20.93;;;3.50;;
3131;SDS011;62090;52.330;9.104;2022-11-25T04:58:50;11.87;;;2.53;;
3131;SDS011;62090;52.330;9.104;2022-11-25T05:01:36;10.00;;;2.70;;
3131;SDS011;62090;52.330;9.104;2022-11-25T05:04:42;11.17;;;3.40;;
3131;SDS011;62090;52.330;9.104;2022-11-25T05:07:14;10.93;;;2.90;;
3131;SDS011;62090;52.330;9.104;2022-11-25T05:09:47;16.10;;;3.50;;
3131;SDS011;62090;52.330;9.104;2022-11-25T05:12:30;17.43;;;3.60;;
3131;SDS011;62090;52.330;9.104;2022-11-25T05:15:07;13.13;;;3.87;;
3131;SDS011;62090;52.330;9.104;2022-11-25T05:17:40;9.70;;;2.90;;
3131;SDS011;62090;52.330;9.104;2022-11-25T05:20:11;16.80;;;3.30;;
3131;SDS011;62090;52.330;9.104;2022-11-25T05:22:42;18.47;;;4.03;;
3131;SDS011;62090;52.330;9.104;2022-11-25T05:25:16;14.03;;;3.47;;
3131;SDS011;62090;52.330;9.104;2022-11-25T05:28:18;17.10;;;3.97;;
3131;SDS011;62090;52.330;9.104;2022-11-25T05:30:51;13.73;;;2.80;;
3131;SDS011;62090;52.330;9.104;2022-11-25T05:33:21;16.87;;;3.50;;
3131;SDS011;62090;52.330;9.104;2022-11-25T05:35:54;13.73;;;3.37;;
3131;SDS011;62090;52.330;9.104;2022-11-25T05:38:31;16.80;;;4.17;;
3131;SDS011;62090;52.330;9.104;2022-11-25T05:41:03;20.00;;;3.93;;
3131;SDS011;62090;52.330;9.104;2022-11-25T05:43:39;19.13;;;3.73;;
3131;SDS011;62090;52.330;9.104;2022-11-25T05:46:13;10.87;;;4.10;;
3131;SDS011;62090;52.330;9.104;2022-11-25T05:48:51;12.80;;;3.10;;
3131;SDS011;62090;52.330;9.104;2022-11-25T05:51:22;14.73;;;3.13;;
3131;SDS011;62090;52.330;9.104;2022-11-25T05:53:58;14.57;;;3.13;;
3131;SDS011;62090;52.330;9.104;2022-11-25T05:56:32;17.90;;;3.83;;
3131;SDS011;62090;52.330;9.104;2022-11-25T05:59:21;11.63;;;3.43;;
3131;SDS011;62090;52.330;9.104;2022-11-25T06:02:04;13.90;;;3.90;;
3131;SDS011;62090;52.330;9.104;2022-11-25T06:04:35;15.43;;;3.73;;
3131;SDS011;62090;52.330;9.104;2022-11-25T06:07:07;11.63;;;3.23;;
3131;SDS011;62090;52.330;9.104;2022-11-25T06:09:39;12.17;;;3.70;;
3131;SDS011;62090;52.330;9.104;2022-11-25T06:12:10;20.43;;;4.70;;
3131;SDS011;62090;52.330;9.104;2022-11-25T06:14:47;13.13;;;4.00;;
3131;SDS011;62090;52.330;9.104;2022-11-25T06:17:22;13.27;;;3.67;;
3131;SDS011;62090;52.330;9.104;2022-11-25T06:20:07;17.67;;;4.03;;
3131;SDS011;62090;52.330;9.104;2022-11-25T06:22:38;14.53;;;3.37;;
3131;SDS011;62090;52.330;9.104;2022-11-25T06:25:08;16.60;;;4.33;;
3131;SDS011;62090;52.330;9.104;2022-11-25T06:27:39;14.60;;;4.67;;
3131;SDS011;62090;52.330;9.104;2022-11-25T06:30:29;14.47;;;3.70;;
3131;SDS011;62090;52.330;9.104;2022-11-25T06:33:25;15.97;;;3.93;;
3131;SDS011;62090;52.330;9.104;2022-11-25T06:36:00;17.00;;;4.63;;
3131;SDS011;62090;52.330;9.104;2022-11-25T06:38:31;16.30;;;4.20;;
3131;SDS011;62090;52.330;9.104;2022-11-25T06:41:02;15.40;;;3.90;;
3131;SDS011;62090;52.330;9.104;2022-11-25T06:43:33;17.40;;;3.50;;
3131;SDS011;62090;52.330;9.104;2022-11-25T06:46:06;19.13;;;4.07;;
3131;SDS011;62090;52.330;9.104;2022-11-25T06:48:40;13.43;;;3.70;;
3131;SDS011;62090;52.330;9.104;2022-11-25T06:51:12;16.97;;;4.37;;
3131;SDS011;62090;52.330;9.104;2022-11-25T06:53:44;24.20;;;5.47;;
3131;SDS011;62090;52.330;9.104;2022-11-25T06:56:14;18.97;;;4.43;;
3131;SDS011;62090;52.330;9.104;2022-11-25T06:58:47;19.97;;;4.50;;
3131;SDS011;62090;52.330;9.104;2022-11-25T07:01:18;16.80;;;3.93;;
3131;SDS011;62090;52.330;9.104;2022-11-25T07:03:53;17.93;;;4.27;;
3131;SDS011;62090;52.330;9.104;2022-11-25T07:06:25;13.83;;;4.03;;
3131;SDS011;62090;52.330;9.104;2022-11-25T07:08:55;20.33;;;4.73;;
3131;SDS011;62090;52.330;9.104;2022-11-25T07:11:27;18.73;;;4.40;;
3131;SDS011;62090;52.330;9.104;2022-11-25T07:13:58;17.07;;;4.10;;
3131;SDS011;62090;52.330;9.104;2022-11-25T07:16:29;11.93;;;3.77;;
3131;SDS011;62090;52.330;9.104;2022-11-25T07:19:03;16.93;;;4.17;;
3131;SDS011;62090;52.330;9.104;2022-11-25T07:21:34;16.37;;;4.43;;
3131;SDS011;62090;52.330;9.104;2022-11-25T07:24:05;12.83;;;3.97;;
3131;SDS011;62090;52.330;9.104;2022-11-25T07:26:37;18.90;;;4.87;;
3131;SDS011;62090;52.330;9.104;2022-11-25T07:29:12;15.50;;;4.07;;
3131;SDS011;62090;52.330;9.104;2022-11-25T07:32:04;14.50;;;5.20;;
3131;SDS011;62090;52.330;9.104;2022-11-25T07:34:40;20.60;;;6.27;;
3131;SDS011;62090;52.330;9.104;2022-11-25T07:37:11;21.23;;;6.70;;
3131;SDS011;62090;52.330;9.104;2022-11-25T07:39:41;12.50;;;4.40;;
3131;SDS011;62090;52.330;9.104;2022-11-25T07:42:11;13.83;;;4.10;;
3131;SDS011;62090;52.330;9.104;2022-11-25T07:44:41;15.43;;;4.40;;
3131;SDS011;62090;52.330;9.104;2022-11-25T07:47:43;13.60;;;4.60;;
3131;SDS011;62090;52.330;9.104;2022-11-25T07:50:16;16.10;;;4.30;;
3131;SDS011;62090;52.330;9.104;2022-11-25T07:52:47;17.20;;;4.07;;
3131;SDS011;62090;52.330;9.104;2022-11-25T07:55:17;18.20;;;5.00;;
3131;SDS011;62090;52.330;9.104;2022-11-25T07:57:48;14.37;;;3.70;;
3131;SDS011;62090;52.330;9.104;2022-11-25T08:00:19;14.40;;;4.70;;
3131;SDS011;62090;52.330;9.104;2022-11-25T08:02:53;15.17;;;3.93;;
3131;SDS011;62090;52.330;9.104;2022-11-25T08:05:27;18.00;;;4.50;;
3131;SDS011;62090;52.330;9.104;2022-11-25T08:07:57;12.60;;;4.80;;
3131;SDS011;62090;52.330;9.104;2022-11-25T08:10:29;14.73;;;3.93;;
3131;SDS011;62090;52.330;9.104;2022-11-25T08:13:00;16.23;;;4.67;;
3131;SDS011;62090;52.330;9.104;2022-11-25T08:15:31;14.63;;;4.60;;
3131;SDS011;62090;52.330;9.104;2022-11-25T08:18:01;17.27;;;4.47;;
3131;SDS011;62090;52.330;9.104;2022-11-25T08:20:34;14.40;;;4.23;;
3131;SDS011;62090;52.330;9.104;2022-11-25T08:23:03;15.57;;;4.87;;
3131;SDS011;62090;52.330;9.104;2022-11-25T08:25:37;27.20;;;4.47;;
3131;SDS011;62090;52.330;9.104;2022-11-25T08:28:16;23.83;;;4.87;;
3131;SDS011;62090;52.330;9.104;2022-11-25T08:30:46;20.07;;;5.30;;
3131;SDS011;62090;52.330;9.104;2022-11-25T08:33:16;15.03;;;5.00;;
3131;SDS011;62090;52.330;9.104;2022-11-25T08:35:54;14.20;;;5.00;;
3131;SDS011;62090;52.330;9.104;2022-11-25T08:38:24;15.47;;;4.67;;
3131;SDS011;62090;52.330;9.104;2022-11-25T08:40:55;16.20;;;5.33;;
3131;SDS011;62090;52.330;9.104;2022-11-25T08:43:27;14.10;;;4.87;;
3131;SDS011;62090;52.330;9.104;2022-11-25T08:45:58;14.77;;;4.63;;
3131;SDS011;62090;52.330;9.104;2022-11-25T08:48:29;18.50;;;5.40;;
3131;SDS011;62090;52.330;9.104;2022-11-25T08:51:05;19.47;;;5.07;;
3131;SDS011;62090;52.330;9.104;2022-11-25T08:53:38;17.73;;;5.43;;
3131;SDS011;62090;52.330;9.104;2022-11-25T08:56:08;16.50;;;5.73;;
3131;SDS011;62090;52.330;9.104;2022-11-25T08:58:39;18.00;;;6.07;;
3131;SDS011;62090;52.330;9.104;2022-11-25T09:01:10;15.97;;;6.50;;
3131;SDS011;62090;52.330;9.104;2022-11-25T09:03:44;17.90;;;5.83;;
3131;SDS011;62090;52.330;9.104;2022-11-25T09:06:19;17.77;;;5.47;;
3131;SDS011;62090;52.330;9.104;2022-11-25T09:08:53;18.40;;;6.43;;
3131;SDS011;62090;52.330;9.104;2022-11-25T09:11:27;20.17;;;6.10;;
3131;SDS011;62090;52.330;9.104;2022-11-25T09:13:57;16.93;;;5.83;;
3131;SDS011;62090;52.330;9.104;2022-11-25T09:16:27;18.27;;;6.20;;
3131;SDS011;62090;52.330;9.104;2022-11-25T09:18:58;14.17;;;5.00;;
3131;SDS011;62090;52.330;9.104;2022-11-25T09:21:32;13.57;;;5.03;;
3131;SDS011;62090;52.330;9.104;2022-11-25T09:24:02;17.53;;;6.57;;
3131;SDS011;62090;52.330;9.104;2022-11-25T09:26:32;12.73;;;5.00;;
3131;SDS011;62090;52.330;9.104;2022-11-25T09:29:07;20.07;;;6.87;;
3131;SDS011;62090;52.330;9.104;2022-11-25T09:31:37;22.87;;;6.50;;
3131;SDS011;62090;52.330;9.104;2022-11-25T09:34:07;19.67;;;5.83;;
3131;SDS011;62090;52.330;9.104;2022-11-25T09:36:39;16.60;;;6.27;;
3131;SDS011;62090;52.330;9.104;2022-11-25T09:39:09;20.30;;;5.90;;
3131;SDS011;62090;52.330;9.104;2022-11-25T09:41:43;22.37;;;5.50;;
3131;SDS011;62090;52.330;9.104;2022-11-25T09:44:37;13.63;;;5.40;;
3131;SDS011;62090;52.330;9.104;2022-11-25T09:47:33;14.27;;;6.00;;
3131;SDS011;62090;52.330;9.104;2022-11-25T09:50:17;19.27;;;5.73;;
3131;SDS011;62090;52.330;9.104;2022-11-25T09:53:00;11.87;;;5.03;;
3131;SDS011;62090;52.330;9.104;2022-11-25T09:55:41;17.63;;;6.30;;
3131;SDS011;62090;52.330;9.104;2022-11-25T09:58:19;13.07;;;5.40;;
3131;SDS011;62090;52.330;9.104;2022-11-25T10:00:54;15.27;;;6.03;;
3131;SDS011;62090;52.330;9.104;2022-11-25T10:03:30;22.20;;;6.63;;
3131;SDS011;62090;52.330;9.104;2022-11-25T10:06:11;19.23;;;6.80;;
3131;SDS011;62090;52.330;9.104;2022-11-25T10:08:47;17.67;;;6.93;;
3131;SDS011;62090;52.330;9.104;2022-11-25T10:11:21;17.87;;;6.70;;
3131;SDS011;62090;52.330;9.104;2022-11-25T10:14:00;16.13;;;6.03;;
3131;SDS011;62090;52.330;9.104;2022-11-25T10:16:38;18.03;;;6.23;;
3131;SDS011;62090;52.330;9.104;2022-11-25T10:19:23;19.67;;;6.93;;
3131;SDS011;62090;52.330;9.104;2022-11-25T10:22:09;26.77;;;8.50;;
3131;SDS011;62090;52.330;9.104;2022-11-25T10:24:49;17.87;;;6.20;;
3131;SDS011;62090;52.330;9.104;2022-11-25T10:27:22;15.50;;;6.10;;
3131;SDS011;62090;52.330;9.104;2022-11-25T10:30:00;24.20;;;7.63;;
3131;SDS011;62090;52.330;9.104;2022-11-25T10:32:39;18.27;;;6.90;;
3131;SDS011;62090;52.330;9.104;2022-11-25T10:35:14;13.43;;;6.63;;
3131;SDS011;62090;52.330;9.104;2022-11-25T10:37:51;18.27;;;6.90;;
3131;SDS011;62090;52.330;9.104;2022-11-25T10:40:26;21.17;;;6.80;;
3131;SDS011;62090;52.330;9.104;2022-11-25T10:42:57;21.33;;;7.27;;
3131;SDS011;62090;52.330;9.104;2022-11-25T10:45:30;15.13;;;5.93;;
3131;SDS011;62090;52.330;9.104;2022-11-25T10:48:14;17.07;;;5.80;;
3131;SDS011;62090;52.330;9.104;2022-11-25T10:50:57;16.83;;;6.10;;
3131;SDS011;62090;52.330;9.104;2022-11-25T10:53:36;23.47;;;7.00;;
3131;SDS011;62090;52.330;9.104;2022-11-25T10:56:16;14.37;;;5.50;;
3131;SDS011;62090;52.330;9.104;2022-11-25T10:58:46;13.63;;;5.10;;
3131;SDS011;62090;52.330;9.104;2022-11-25T11:01:19;14.23;;;5.83;;
3131;SDS011;62090;52.330;9.104;2022-11-25T11:03:52;21.10;;;5.97;;
3131;SDS011;62090;52.330;9.104;2022-11-25T11:06:34;14.13;;;5.77;;
3131;SDS011;62090;52.330;9.104;2022-11-25T11:09:08;15.73;;;5.93;;
3131;SDS011;62090;52.330;9.104;2022-11-25T11:12:12;15.93;;;5.93;;
3131;SDS011;62090;52.330;9.104;2022-11-25T11:14:46;19.10;;;5.83;;
3131;SDS011;62090;52.330;9.104;2022-11-25T11:17:24;17.37;;;6.07;;
3131;SDS011;62090;52.330;9.104;2022-11-25T11:20:14;20.73;;;7.00;;
3131;SDS011;62090;52.330;9.104;2022-11-25T11:22:48;14.03;;;5.57;;
3131;SDS011;62090;52.330;9.104;2022-11-25T11:25:33;18.63;;;5.60;;
3131;SDS011;62090;52.330;9.104;2022-11-25T11:30:55;12.83;;;5.50;;
3131;SDS011;62090;52.330;9.104;2022-11-25T11:33:33;19.53;;;6.23;;
3131;SDS011;62090;52.330;9.104;2022-11-25T11:36:10;11.03;;;4.77;;
3131;SDS011;62090;52.330;9.104;2022-11-25T11:38:52;13.10;;;5.13;;
3131;SDS011;62090;52.330;9.104;2022-11-25T11:41:32;17.47;;;5.10;;
3131;SDS011;62090;52.330;9.104;2022-11-25T11:44:09;15.20;;;5.37;;
3131;SDS011;62090;52.330;9.104;2022-11-25T11:46:49;14.80;;;4.73;;
3131;SDS011;62090;52.330;9.104;2022-11-25T11:52:33;13.97;;;5.87;;
3131;SDS011;62090;52.330;9.104;2022-11-25T11:55:16;14.70;;;6.00;;
3131;SDS011;62090;52.330;9.104;2022-11-25T11:58:01;13.07;;;5.67;;
3131;SDS011;62090;52.330;9.104;2022-11-25T12:00:40;24.60;;;5.83;;
3131;SDS011;62090;52.330;9.104;2022-11-25T12:03:19;14.87;;;5.20;;
3131;SDS011;62090;52.330;9.104;2022-11-25T12:05:53;13.50;;;5.10;;
3131;SDS011;62090;52.330;9.104;2022-11-25T12:08:26;18.17;;;4.80;;
3131;SDS011;62090;52.330;9.104;2022-11-25T12:11:03;15.40;;;5.67;;
3131;SDS011;62090;52.330;9.104;2022-11-25T12:13:44;13.73;;;5.20;;
3131;SDS011;62090;52.330;9.104;2022-11-25T12:16:29;13.20;;;4.80;;
3131;SDS011;62090;52.330;9.104;2022-11-25T12:19:05;15.23;;;5.17;;
3131;SDS011;62090;52.330;9.104;2022-11-25T12:21:44;13.60;;;4.80;;
3131;SDS011;62090;52.330;9.104;2022-11-25T12:24:20;15.43;;;6.10;;
3131;SDS011;62090;52.330;9.104;2022-11-25T12:26:56;12.80;;;5.00;;
3131;SDS011;62090;52.330;9.104;2022-11-25T12:29:34;16.60;;;5.40;;
3131;SDS011;62090;52.330;9.104;2022-11-25T12:32:11;17.53;;;5.17;;
3131;SDS011;62090;52.330;9.104;2022-11-25T12:35:12;14.90;;;5.03;;
3131;SDS011;62090;52.330;9.104;2022-11-25T12:37:49;18.10;;;6.27;;
3131;SDS011;62090;52.330;9.104;2022-11-25T12:40:29;13.50;;;6.30;;
3131;SDS011;62090;52.330;9.104;2022-11-25T12:43:05;15.07;;;6.40;;
3131;SDS011;62090;52.330;9.104;2022-11-25T12:45:53;19.67;;;8.57;;
3131;SDS011;62090;52.330;9.104;2022-11-25T12:48:30;22.67;;;8.77;;
3131;SDS011;62090;52.330;9.104;2022-11-25T12:51:05;18.57;;;9.53;;
3131;SDS011;62090;52.330;9.104;2022-11-25T12:53:43;18.67;;;8.57;;
3131;SDS011;62090;52.330;9.104;2022-11-25T12:56:21;18.20;;;7.97;;
3131;SDS011;62090;52.330;9.104;2022-11-25T12:59:02;19.57;;;8.03;;
3131;SDS011;62090;52.330;9.104;2022-11-25T13:01:56;19.40;;;9.77;;
3131;SDS011;62090;52.330;9.104;2022-11-25T13:04:49;17.50;;;9.23;;
3131;SDS011;62090;52.330;9.104;2022-11-25T13:07:57;18.23;;;9.60;;
3131;SDS011;62090;52.330;9.104;2022-11-25T13:10:47;18.03;;;9.83;;
3131;SDS011;62090;52.330;9.104;2022-11-25T13:13:36;15.77;;;9.30;;
3131;SDS011;62090;52.330;9.104;2022-11-25T13:16:21;17.40;;;8.80;;
3131;SDS011;62090;52.330;9.104;2022-11-25T13:18:56;28.20;;;9.87;;
3131;SDS011;62090;52.330;9.104;2022-11-25T13:21:26;19.37;;;9.63;;
3131;SDS011;62090;52.330;9.104;2022-11-25T13:23:57;18.80;;;9.50;;
3131;SDS011;62090;52.330;9.104;2022-11-25T13:26:44;23.50;;;8.87;;
3131;SDS011;62090;52.330;9.104;2022-11-25T13:32:31;19.27;;;9.50;;
3131;SDS011;62090;52.330;9.104;2022-11-25T13:41:30;21.60;;;9.40;;
3131;SDS011;62090;52.330;9.104;2022-11-25T13:44:19;18.63;;;9.70;;
3131;SDS011;62090;52.330;9.104;2022-11-25T13:46:54;22.53;;;9.50;;
3131;SDS011;62090;52.330;9.104;2022-11-25T13:49:37;21.83;;;9.50;;
3131;SDS011;62090;52.330;9.104;2022-11-25T13:55:22;18.43;;;9.67;;
3131;SDS011;62090;52.330;9.104;2022-11-25T14:01:01;19.83;;;9.30;;
3131;SDS011;62090;52.330;9.104;2022-11-25T14:03:47;16.90;;;9.30;;
3131;SDS011;62090;52.330;9.104;2022-11-25T14:06:33;18.23;;;10.83;;
3131;SDS011;62090;52.330;9.104;2022-11-25T14:15:31;21.10;;;9.20;;
3131;SDS011;62090;52.330;9.104;2022-11-25T14:18:18;18.07;;;9.87;;
3131;SDS011;62090;52.330;9.104;2022-11-25T14:21:25;19.20;;;10.30;;
3131;SDS011;62090;52.330;9.104;2022-11-25T14:24:15;18.20;;;10.50;;
3131;SDS011;62090;52.330;9.104;2022-11-25T14:26:58;19.40;;;9.47;;
3131;SDS011;62090;52.330;9.104;2022-11-25T14:29:35;21.10;;;9.67;;
3131;SDS011;62090;52.330;9.104;2022-11-25T14:32:12;17.53;;;9.30;;
3131;SDS011;62090;52.330;9.104;2022-11-25T14:34:47;21.63;;;10.57;;
3131;SDS011;62090;52.330;9.104;2022-11-25T14:37:25;28.87;;;10.53;;
3131;SDS011;62090;52.330;9.104;2022-11-25T14:39:58;17.13;;;10.17;;
3131;SDS011;62090;52.330;9.104;2022-11-25T14:42:36;22.77;;;10.63;;
3131;SDS011;62090;52.330;9.104;2022-11-25T14:45:18;25.43;;;10.57;;
3131;SDS011;62090;52.330;9.104;2022-11-25T14:47:54;17.90;;;10.20;;
3131;SDS011;62090;52.330;9.104;2022-11-25T14:50:25;15.93;;;9.33;;
3131;SDS011;62090;52.330;9.104;2022-11-25T14:53:04;18.50;;;9.40;;
3131;SDS011;62090;52.330;9.104;2022-11-25T14:55:36;16.37;;;9.40;;
3131;SDS011;62090;52.330;9.104;2022-11-25T14:58:08;20.80;;;10.13;;
3131;SDS011;62090;52.330;9.104;2022-11-25T15:00:49;15.43;;;9.47;;
3131;SDS011;62090;52.330;9.104;2022-11-25T15:03:23;19.00;;;9.90;;
3131;SDS011;62090;52.330;9.104;2022-11-25T15:05:56;21.20;;;10.60;;
3131;SDS011;62090;52.330;9.104;2022-11-25T15:08:35;18.50;;;10.50;;
3131;SDS011;62090;52.330;9.104;2022-11-25T15:11:09;21.67;;;12.17;;
3131;SDS011;62090;52.330;9.104;2022-11-25T15:13:43;25.80;;;12.97;;
3131;SDS011;62090;52.330;9.104;2022-11-25T15:16:15;35.07;;;17.40;;
3131;SDS011;62090;52.330;9.104;2022-11-25T15:18:50;33.57;;;15.73;;
3131;SDS011;62090;52.330;9.104;2022-11-25T15:21:26;38.60;;;17.73;;
3131;SDS011;62090;52.330;9.104;2022-11-25T15:24:01;32.07;;;19.13;;
3131;SDS011;62090;52.330;9.104;2022-11-25T15:26:34;41.17;;;19.13;;
3131;SDS011;62090;52.330;9.104;2022-11-25T15:29:09;41.60;;;22.73;;
3131;SDS011;62090;52.330;9.104;2022-11-25T15:31:41;45.17;;;27.50;;
3131;SDS011;62090;52.330;9.104;2022-11-25T15:34:15;44.07;;;25.20;;
3131;SDS011;62090;52.330;9.104;2022-11-25T15:36:48;40.43;;;25.73;;
3131;SDS011;62090;52.330;9.104;2022-11-25T15:39:22;22.57;;;14.50;;
3131;SDS011;62090;52.330;9.104;2022-11-25T15:42:02;17.90;;;13.00;;
3131;SDS011;62090;52.330;9.104;2022-11-25T15:44:37;24.30;;;12.67;;
3131;SDS011;62090;52.330;9.104;2022-11-25T15:47:17;21.93;;;12.30;;
3131;SDS011;62090;52.330;9.104;2022-11-25T15:49:56;20.60;;;12.80;;
3131;SDS011;62090;52.330;9.104;2022-11-25T15:52:29;24.53;;;12.80;;
3131;SDS011;62090;52.330;9.104;2022-11-25T15:55:05;22.07;;;13.50;;
3131;SDS011;62090;52.330;9.104;2022-11-25T15:57:47;20.33;;;13.07;;
3131;SDS011;62090;52.330;9.104;2022-11-25T16:00:21;30.03;;;13.40;;
3131;SDS011;62090;52.330;9.104;2022-11-25T16:02:53;18.90;;;12.57;;